Terminal Aerodrome Forecast
Issued by NWS

Home | Current Version | Previous Version | Graphics & Text | Print | Product List | Glossary On
Versions: 1 2 3 4 5 6 7 8 9 10 11 12 13 14 15 16 17 18 19
000
FTUS43 KGRB 132300
TAFAUW
TAF
KAUW 132333Z 1400/1424 01015KT 3SM RA BR OVC009
     FM140400 35015G21KT 6SM -RASN OVC005
     FM140700 34015G22KT 2SM -SN BR OVC006
     FM141200 33015G25KT 6SM -SN SCT007 OVC015
     FM141700 32015G25KT P6SM BKN030
     FM142300 32012KT P6SM SCT045=

USA.gov is the U.S. government's official web portal to all federal, state and local government web resources and services.